createdAt,value
2022-12-05T00:02:17.251Z,98945.40
2022-12-05T00:04:46.472Z,98945.83
2022-12-05T00:07:15.088Z,98946.46
2022-12-05T00:09:44.473Z,98943.45
2022-12-05T00:12:13.214Z,98939.81
2022-12-05T00:14:41.794Z,98938.45
2022-12-05T00:17:10.718Z,98937.20
2022-12-05T00:19:40.985Z,98940.44
2022-12-05T00:22:09.659Z,98937.58
2022-12-05T00:24:39.780Z,98934.06
2022-12-05T00:27:08.917Z,98932.91
2022-12-05T00:29:37.695Z,98933.68
2022-12-05T00:32:06.492Z,98933.34
2022-12-05T00:34:35.485Z,98928.31
2022-12-05T00:37:04.039Z,98929.15
2022-12-05T00:39:32.955Z,98927.86
2022-12-05T00:42:01.960Z,98932.27
2022-12-05T00:44:30.563Z,98935.00
2022-12-05T00:46:59.449Z,98938.50
2022-12-05T00:49:28.582Z,98941.86
2022-12-05T00:51:57.243Z,98939.09
2022-12-05T00:54:25.947Z,98938.75
2022-12-05T00:56:57.496Z,98940.02
2022-12-05T00:59:26.083Z,98939.29
2022-12-05T01:01:54.948Z,98936.78
2022-12-05T01:04:25.611Z,98933.73
2022-12-05T01:06:57.199Z,98929.16
2022-12-05T01:09:26.801Z,98924.85
2022-12-05T01:11:55.784Z,98921.06
2022-12-05T01:14:26.826Z,98920.19
2022-12-05T01:16:57.408Z,98922.52
2022-12-05T01:19:30.411Z,98927.16
2022-12-05T01:22:00.031Z,98931.40
2022-12-05T01:24:30.063Z,98930.77
2022-12-05T01:26:58.532Z,98925.02
2022-12-05T01:29:28.256Z,98922.35
2022-12-05T01:31:56.934Z,98924.86
2022-12-05T01:34:26.235Z,98922.64
2022-12-05T01:36:55.667Z,98912.90
2022-12-05T01:39:24.211Z,98910.45
2022-12-05T01:41:52.823Z,98914.25
2022-12-05T01:44:24.993Z,98913.52
2022-12-05T01:46:55.020Z,98913.31
2022-12-05T01:49:34.060Z,98920.53
2022-12-05T01:52:07.806Z,98918.60
2022-12-05T01:54:38.708Z,98920.83
2022-12-05T01:57:11.296Z,98921.26
2022-12-05T01:59:46.019Z,98921.38
2022-12-05T02:02:14.941Z,98919.02
2022-12-05T02:05:08.983Z,98916.83
2022-12-05T02:07:40.045Z,98913.27
2022-12-05T02:10:10.196Z,98911.85
2022-12-05T02:12:39.711Z,98913.08
2022-12-05T02:15:37.861Z,98911.36
2022-12-05T02:18:27.760Z,98912.02
2022-12-05T02:21:12.063Z,98908.15
2022-12-05T02:23:44.110Z,98901.92
2022-12-05T02:26:12.907Z,98903.56
2022-12-05T02:29:04.436Z,98903.73
2022-12-05T02:31:53.430Z,98907.50
2022-12-05T02:34:35.933Z,98904.55
2022-12-05T02:37:33.710Z,98902.95
2022-12-05T02:40:21.962Z,98905.35
2022-12-05T02:42:54.026Z,98901.60
2022-12-05T02:45:26.521Z,98903.35
2022-12-05T02:47:56.157Z,98899.62
2022-12-05T02:50:31.499Z,98902.77
2022-12-05T02:53:05.327Z,98906.45
2022-12-05T02:55:35.337Z,98897.60
2022-12-05T02:58:08.022Z,98891.72
2022-12-05T03:00:40.864Z,98892.83
2022-12-05T03:03:19.966Z,98887.16
2022-12-05T03:06:03.021Z,98895.97
2022-12-05T03:08:46.146Z,98890.46
2022-12-05T03:11:15.927Z,98896.07
2022-12-05T03:13:58.565Z,98895.61
2022-12-05T03:16:37.114Z,98894.23
2022-12-05T03:19:20.725Z,98895.91
2022-12-05T03:21:52.362Z,98887.88
2022-12-05T03:24:21.182Z,98886.62
2022-12-05T03:27:27.932Z,98889.84
2022-12-05T03:30:06.415Z,98891.38
2022-12-05T03:32:44.429Z,98886.93
2022-12-05T03:35:23.128Z,98885.11
2022-12-05T03:37:55.086Z,98883.77
2022-12-05T03:40:35.870Z,98881.77
2022-12-05T03:43:13.546Z,98878.02
2022-12-05T03:45:50.474Z,98884.44
2022-12-05T03:48:37.528Z,98889.23
2022-12-05T03:51:10.822Z,98890.20
2022-12-05T03:53:48.452Z,98892.83
2022-12-05T03:56:26.386Z,98895.16
2022-12-05T03:59:02.250Z,98896.02
2022-12-05T04:01:35.420Z,98896.36
2022-12-05T04:04:11.107Z,98899.18
2022-12-05T04:06:44.293Z,98897.94
2022-12-05T04:09:20.508Z,98902.66
2022-12-05T04:11:55.436Z,98895.85
2022-12-05T04:14:36.421Z,98901.67
2022-12-05T04:17:09.671Z,98900.01
2022-12-05T04:20:06.815Z,98897.15
2022-12-05T04:22:37.029Z,98897.33
2022-12-05T04:25:29.583Z,98888.57
2022-12-05T04:28:26.133Z,98888.38
2022-12-05T04:31:01.368Z,98888.45
2022-12-05T04:33:42.388Z,98883.69
2022-12-05T04:36:20.415Z,98883.45
2022-12-05T04:38:55.459Z,98882.04
2022-12-05T04:41:44.259Z,98878.45
2022-12-05T04:44:17.816Z,98882.37
2022-12-05T04:46:49.884Z,98883.17
2022-12-05T04:49:24.077Z,98888.21
2022-12-05T04:51:59.512Z,98885.14
2022-12-05T04:54:32.714Z,98889.98
2022-12-05T04:57:34.258Z,98883.82
2022-12-05T05:00:06.911Z,98888.14
2022-12-05T05:03:11.755Z,98895.71
2022-12-05T05:05:45.517Z,98890.77
2022-12-05T05:08:24.183Z,98896.33
2022-12-05T05:11:13.561Z,98899.20
2022-12-05T05:13:42.660Z,98904.20
2022-12-05T05:16:27.049Z,98901.83
2022-12-05T05:18:56.449Z,98901.86
2022-12-05T05:21:36.914Z,98900.56
2022-12-05T05:24:07.356Z,98897.69
2022-12-05T05:26:38.589Z,98895.62
2022-12-05T05:29:07.821Z,98892.52
2022-12-05T05:31:38.465Z,98885.02
2022-12-05T05:34:09.629Z,98887.56
2022-12-05T05:36:39.843Z,98890.73
2022-12-05T05:39:12.751Z,98885.98
2022-12-05T05:41:42.880Z,98884.16
2022-12-05T05:44:11.305Z,98883.52
2022-12-05T05:46:39.965Z,98880.80
2022-12-05T05:49:10.592Z,98886.45
2022-12-05T05:51:38.907Z,98882.59
2022-12-05T05:54:07.502Z,98882.85
2022-12-05T05:56:37.257Z,98884.23
2022-12-05T05:59:05.833Z,98886.27
2022-12-05T06:01:34.396Z,98886.61
2022-12-05T06:04:05.034Z,98886.84
2022-12-05T06:06:33.860Z,98892.23
2022-12-05T06:09:02.679Z,98887.31
2022-12-05T06:11:32.053Z,98885.06
2022-12-05T06:14:03.918Z,98883.89
2022-12-05T06:16:33.430Z,98882.95
2022-12-05T06:19:02.224Z,98880.92
2022-12-05T06:21:30.787Z,98883.34
2022-12-05T06:23:59.979Z,98884.07
2022-12-05T06:26:28.633Z,98883.89
2022-12-05T06:28:57.181Z,98886.97
2022-12-05T06:31:32.717Z,98901.95
2022-12-05T06:34:03.292Z,98899.42
2022-12-05T06:36:31.982Z,98902.67
2022-12-05T06:39:01.203Z,98904.22
2022-12-05T06:41:29.859Z,98907.05
2022-12-05T06:44:02.282Z,98905.08
2022-12-05T06:46:31.757Z,98911.21
2022-12-05T06:49:01.068Z,98914.08
2022-12-05T06:51:29.587Z,98911.29
2022-12-05T06:53:58.496Z,98908.39
2022-12-05T06:56:27.454Z,98906.96
2022-12-05T06:58:56.605Z,98906.94
2022-12-05T07:01:39.651Z,98908.81
2022-12-05T07:04:11.748Z,98905.38
2022-12-05T07:06:48.748Z,98900.85
2022-12-05T07:09:21.559Z,98903.16
2022-12-05T07:11:51.782Z,98908.39
2022-12-05T07:17:10.447Z,98917.08
2022-12-05T07:19:39.435Z,98918.02
2022-12-05T07:22:12.160Z,98924.14
2022-12-05T07:24:46.494Z,98923.92
2022-12-05T07:27:17.048Z,98930.63
2022-12-05T07:29:48.883Z,98929.03
2022-12-05T07:32:17.473Z,98932.98
2022-12-05T07:34:48.618Z,98935.52
2022-12-05T07:37:20.573Z,98936.55
2022-12-05T07:39:49.219Z,98940.73
2022-12-05T07:42:18.164Z,98943.08
2022-12-05T07:44:47.455Z,98938.48
2022-12-05T07:47:16.239Z,98938.73
2022-12-05T07:49:45.398Z,98932.46
2022-12-05T07:52:14.457Z,98937.41
2022-12-05T07:54:43.078Z,98940.55
2022-12-05T07:57:12.020Z,98944.16
2022-12-05T07:59:41.875Z,98949.70
2022-12-05T08:02:10.593Z,98951.86
2022-12-05T08:04:39.816Z,98945.55
2022-12-05T08:07:11.847Z,98949.24
2022-12-05T08:09:40.717Z,98946.15
2022-12-05T08:12:10.922Z,98944.09
2022-12-05T08:14:40.244Z,98941.06
2022-12-05T08:17:09.105Z,98939.27
2022-12-05T08:19:38.024Z,98936.36
2022-12-05T08:22:07.332Z,98938.64
2022-12-05T08:24:36.355Z,98938.54
2022-12-05T08:27:05.836Z,98937.14
2022-12-05T08:29:35.616Z,98942.50
2022-12-05T08:32:04.620Z,98943.42
2022-12-05T08:34:33.299Z,98942.06
2022-12-05T08:37:02.683Z,98943.94
2022-12-05T08:39:36.835Z,98949.73
2022-12-05T08:42:08.250Z,98952.94
2022-12-05T08:44:37.143Z,98948.60
2022-12-05T08:47:06.883Z,98956.33
2022-12-05T08:49:35.844Z,98961.22
2022-12-05T08:52:04.841Z,98954.08
2022-12-05T08:54:33.627Z,98952.39
2022-12-05T08:57:03.135Z,98949.95
2022-12-05T08:59:33.213Z,98948.63
2022-12-05T09:02:02.974Z,98958.19
2022-12-05T09:04:33.150Z,98957.86
2022-12-05T09:07:04.031Z,98958.70
2022-12-05T09:09:34.112Z,98959.86
2022-12-05T09:12:06.375Z,98962.68
2022-12-05T09:14:35.699Z,98956.29
2022-12-05T09:17:04.835Z,98953.54
2022-12-05T09:19:33.529Z,98957.36
2022-12-05T09:22:03.169Z,98950.74
2022-12-05T09:24:35.208Z,98949.08
2022-12-05T09:27:04.341Z,98953.79
2022-12-05T09:29:33.048Z,98949.96
2022-12-05T09:32:01.731Z,98947.63
2022-12-05T09:34:33.636Z,98950.40
2022-12-05T09:37:23.301Z,98945.63
2022-12-05T09:39:51.531Z,98942.74
2022-12-05T09:42:36.148Z,98943.95
2022-12-05T09:45:10.216Z,98941.60
2022-12-05T09:48:05.607Z,98938.20
2022-12-05T09:50:46.837Z,98939.56
2022-12-05T09:53:35.009Z,98937.63
2022-12-05T09:56:07.483Z,98931.46
2022-12-05T09:58:51.637Z,98934.66
2022-12-05T10:01:39.479Z,98936.17
2022-12-05T10:04:18.151Z,98934.86
2022-12-05T10:07:14.688Z,98931.60
2022-12-05T10:09:48.853Z,98931.02
2022-12-05T10:12:35.550Z,98933.08
2022-12-05T10:15:22.566Z,98931.64
2022-12-05T10:17:59.925Z,98930.63
2022-12-05T10:20:35.471Z,98925.48
2022-12-05T10:23:23.129Z,98925.46
2022-12-05T10:26:05.675Z,98921.98
2022-12-05T11:18:54.003Z,98898.21
2022-12-05T11:21:22.884Z,98898.57
2022-12-05T11:23:51.900Z,98905.23
2022-12-05T11:26:38.023Z,98901.52
2022-12-05T11:29:30.261Z,98899.30
2022-12-05T11:31:59.897Z,98899.65
2022-12-05T11:35:13.222Z,98900.33
2022-12-05T11:37:53.631Z,98891.53
2022-12-05T11:40:33.945Z,98893.48
2022-12-05T11:43:30.061Z,98895.20
2022-12-05T11:46:04.631Z,98900.84
2022-12-05T11:48:42.383Z,98895.17
2022-12-05T11:51:44.667Z,98895.21
2022-12-05T11:55:03.388Z,98898.70
2022-12-05T11:57:52.046Z,98896.02
2022-12-05T12:00:30.108Z,98895.34
2022-12-05T12:03:38.177Z,98896.49
2022-12-05T12:06:25.850Z,98896.08
2022-12-05T12:09:39.477Z,98893.11
2022-12-05T12:12:18.647Z,98895.21
2022-12-05T12:15:09.151Z,98894.61
2022-12-05T12:17:55.027Z,98898.11
2022-12-05T12:20:45.714Z,98900.85
2022-12-05T12:23:36.878Z,98900.30
2022-12-05T12:26:23.385Z,98890.93
2022-12-05T12:29:27.656Z,98894.52
2022-12-05T12:32:18.868Z,98893.98
2022-12-05T12:35:11.008Z,98888.63
2022-12-05T12:38:30.700Z,98889.73
2022-12-05T12:41:05.622Z,98891.36
2022-12-05T12:43:59.367Z,98894.96
2022-12-05T12:46:41.981Z,98897.14
2022-12-05T12:49:33.163Z,98899.85
2022-12-05T12:52:06.069Z,98909.26
2022-12-05T12:55:02.867Z,98907.07
2022-12-05T12:57:38.795Z,98911.89
2022-12-05T13:00:22.333Z,98915.20
2022-12-05T13:03:47.187Z,98914.48
2022-12-05T13:06:25.310Z,98912.08
2022-12-05T13:09:02.924Z,98914.67
2022-12-05T13:11:40.679Z,98921.55
2022-12-05T13:14:16.312Z,98929.11
2022-12-05T13:16:51.685Z,98929.61
2022-12-05T13:19:29.830Z,98924.92
2022-12-05T13:21:59.629Z,98931.89
2022-12-05T13:24:29.342Z,98935.45
2022-12-05T13:27:02.024Z,98930.23
2022-12-05T13:29:43.234Z,98933.77
2022-12-05T13:32:37.002Z,98939.70
2022-12-05T13:35:11.270Z,98942.14
2022-12-05T13:38:08.298Z,98942.67
2022-12-05T13:41:07.194Z,98943.73
2022-12-05T13:43:46.150Z,98941.59
2022-12-05T13:46:28.334Z,98944.97
2022-12-05T13:49:07.137Z,98948.69
2022-12-05T13:51:41.712Z,98943.00
2022-12-05T13:54:22.129Z,98941.02
2022-12-05T13:57:02.748Z,98940.58
2022-12-05T14:00:08.977Z,98937.17
2022-12-05T14:02:44.086Z,98941.91
2022-12-05T14:05:19.995Z,98945.27
2022-12-05T14:07:51.841Z,98942.87
2022-12-05T14:10:43.512Z,98939.84
2022-12-05T14:13:15.659Z,98943.29
2022-12-05T14:15:46.454Z,98942.48
2022-12-05T14:18:34.063Z,98938.64
2022-12-05T14:21:16.408Z,98937.42
2022-12-05T14:23:56.426Z,98939.30
2022-12-05T14:26:48.235Z,98942.85
2022-12-05T14:29:35.730Z,98943.60
2022-12-05T14:32:28.599Z,98943.10
2022-12-05T14:35:18.135Z,98944.59
2022-12-05T14:38:30.039Z,98948.82
2022-12-05T14:41:15.062Z,98951.73
2022-12-05T14:43:44.795Z,98943.52
2022-12-05T14:46:26.346Z,98942.61
2022-12-05T14:48:56.560Z,98938.60
2022-12-05T14:51:31.117Z,98944.61
2022-12-05T14:54:08.034Z,98943.75
2022-12-05T14:57:12.858Z,98939.04
2022-12-05T14:59:57.034Z,98934.92
2022-12-05T15:02:38.283Z,98939.93
2022-12-05T15:05:29.895Z,98942.38
2022-12-05T15:08:00.387Z,98939.83
2022-12-05T15:10:39.228Z,98940.88
2022-12-05T15:13:13.862Z,98943.90
2022-12-05T15:16:13.481Z,98944.54
2022-12-05T15:18:52.245Z,98941.66
2022-12-05T15:21:29.495Z,98942.85
2022-12-05T15:24:01.789Z,98949.70
2022-12-05T15:26:46.732Z,98950.27
2022-12-05T15:29:25.723Z,98952.26
2022-12-05T15:31:56.532Z,98948.56
2022-12-05T15:34:28.970Z,98949.08
2022-12-05T15:37:11.355Z,98946.48
2022-12-05T15:39:59.489Z,98946.28
2022-12-05T15:42:31.690Z,98947.83
2022-12-05T15:45:14.875Z,98951.97
2022-12-05T15:47:52.449Z,98949.30
2022-12-05T15:50:25.659Z,98944.59
2022-12-05T15:52:59.505Z,98943.14
2022-12-05T15:55:44.343Z,98939.69
2022-12-05T15:58:28.964Z,98939.98
2022-12-05T16:01:19.301Z,98943.64
2022-12-05T16:03:54.545Z,98946.52
2022-12-05T16:06:29.629Z,98950.38
2022-12-05T16:09:02.933Z,98958.65
2022-12-05T16:11:32.047Z,98962.84
2022-12-05T16:14:06.364Z,98963.30
2022-12-05T16:16:39.302Z,98962.09
2022-12-05T16:19:22.548Z,98957.17
2022-12-05T16:22:08.234Z,98957.13
2022-12-05T16:24:44.444Z,98959.77
2022-12-05T16:27:23.626Z,98961.45
2022-12-05T16:30:22.245Z,98967.86
2022-12-05T16:33:01.479Z,98975.96
2022-12-05T16:35:39.644Z,98973.30
2022-12-05T16:38:26.237Z,98973.60
2022-12-05T16:41:01.470Z,98968.15
2022-12-05T16:43:33.492Z,98969.10
2022-12-05T16:46:11.881Z,98964.94
2022-12-05T16:48:49.138Z,98969.35
2022-12-05T16:51:21.752Z,98970.62
2022-12-05T16:53:53.015Z,98966.42
2022-12-05T16:56:28.361Z,98968.34
2022-12-05T16:58:57.570Z,98965.41
2022-12-05T17:01:27.731Z,98964.95
2022-12-05T17:03:57.463Z,98963.52
2022-12-05T17:06:27.524Z,98960.34
2022-12-05T17:08:56.315Z,98963.30
2022-12-05T17:11:35.943Z,98959.91
2022-12-05T17:14:04.829Z,98962.38
2022-12-05T17:16:34.185Z,98957.98
2022-12-05T17:19:02.965Z,98960.47
2022-12-05T17:21:33.743Z,98963.86
2022-12-05T17:24:02.484Z,98962.54
2022-12-05T17:26:31.643Z,98964.07
2022-12-05T17:29:01.131Z,98969.80
2022-12-05T17:31:30.564Z,98970.97
2022-12-05T17:33:59.523Z,98966.40
2022-12-05T17:36:28.529Z,98958.47
2022-12-05T17:38:57.181Z,98953.99
2022-12-05T17:41:26.357Z,98954.66
2022-12-05T17:43:55.586Z,98958.04
2022-12-05T17:46:24.367Z,98955.78
2022-12-05T17:48:53.673Z,98956.22
2022-12-05T17:51:23.660Z,98956.46
2022-12-05T17:53:53.376Z,98953.85
2022-12-05T17:56:22.723Z,98952.69
2022-12-05T17:58:52.307Z,98948.72
2022-12-05T18:01:21.195Z,98948.64
2022-12-05T18:03:50.704Z,98952.41
2022-12-05T18:06:20.510Z,98948.80
2022-12-05T18:08:50.303Z,98947.00
2022-12-05T18:11:19.577Z,98951.17
2022-12-05T18:13:48.633Z,98950.17
2022-12-05T18:16:18.594Z,98947.44
2022-12-05T18:18:47.853Z,98949.32
2022-12-05T18:21:17.349Z,98950.54
2022-12-05T18:23:45.958Z,98946.46
2022-12-05T18:26:15.387Z,98944.18
2022-12-05T18:28:44.847Z,98941.19
2022-12-05T18:31:16.667Z,98940.95
2022-12-05T18:33:47.167Z,98943.19
2022-12-05T18:36:18.151Z,98939.38
2022-12-05T18:38:52.576Z,98941.95
2022-12-05T18:41:24.165Z,98941.23
2022-12-05T18:43:53.746Z,98944.45
2022-12-05T18:46:23.093Z,98944.56
2022-12-05T18:48:52.266Z,98953.38
2022-12-05T18:51:24.233Z,98954.98
2022-12-05T18:53:54.903Z,98956.94
2022-12-05T18:56:30.500Z,98963.20
2022-12-05T18:59:13.717Z,98969.50
2022-12-05T19:01:43.078Z,98973.83
2022-12-05T19:04:13.838Z,98970.35
2022-12-05T19:06:49.453Z,98972.38
2022-12-05T19:09:21.123Z,98970.26
2022-12-05T19:11:53.310Z,98965.73
2022-12-05T19:14:22.152Z,98967.41
2022-12-05T19:16:58.424Z,98960.88
2022-12-05T19:19:32.450Z,98959.39
2022-12-05T19:22:02.525Z,98969.00
2022-12-05T19:24:32.277Z,98965.34
2022-12-05T19:27:01.002Z,98969.25
2022-12-05T19:29:29.780Z,98969.66
2022-12-05T19:31:58.998Z,98969.96
2022-12-05T19:34:28.760Z,98974.55
2022-12-05T19:36:57.478Z,98968.08
2022-12-05T19:39:27.100Z,98962.88
2022-12-05T19:41:59.860Z,98962.05
2022-12-05T19:44:30.047Z,98962.66
2022-12-05T19:46:58.778Z,98960.19
2022-12-05T19:49:28.009Z,98960.14
2022-12-05T19:51:57.339Z,98956.25
2022-12-05T19:54:26.090Z,98952.48
2022-12-05T19:56:58.641Z,98952.09
2022-12-05T19:59:27.593Z,98950.85
2022-12-05T20:01:56.353Z,98950.67
2022-12-05T20:04:25.385Z,98951.79
2022-12-05T20:06:54.503Z,98951.70
2022-12-05T20:09:24.024Z,98952.95
2022-12-05T20:11:55.463Z,98955.53
2022-12-05T20:14:28.332Z,98954.71
2022-12-05T20:16:59.871Z,98959.25
2022-12-05T20:19:28.830Z,98957.75
2022-12-05T20:21:59.197Z,98961.48
2022-12-05T20:24:27.859Z,98965.80
2022-12-05T20:26:56.796Z,98969.05
2022-12-05T20:29:25.350Z,98968.90
2022-12-05T20:31:57.514Z,98966.92
2022-12-05T20:34:26.948Z,98964.23
2022-12-05T20:36:55.586Z,98965.46
2022-12-05T20:39:25.202Z,98960.41
2022-12-05T20:41:54.263Z,98958.42
2022-12-05T20:44:23.242Z,98956.74
2022-12-05T20:46:52.852Z,98955.58
2022-12-05T20:49:21.879Z,98947.98
2022-12-05T20:51:50.709Z,98952.98
2022-12-05T20:54:19.849Z,98948.30
2022-12-05T20:56:49.437Z,98949.41
2022-12-05T20:59:18.270Z,98949.84
2022-12-05T21:01:48.207Z,98948.09
2022-12-05T21:04:17.621Z,98949.56
2022-12-05T21:06:47.028Z,98947.13
2022-12-05T21:09:28.099Z,98946.63
2022-12-05T21:11:57.245Z,98938.23
2022-12-05T21:14:25.896Z,98935.14
2022-12-05T21:16:54.952Z,98931.41
2022-12-05T21:19:24.116Z,98931.61
2022-12-05T21:21:58.432Z,98929.05
2022-12-05T21:24:28.781Z,98927.30
2022-12-05T21:26:57.285Z,98923.78
2022-12-05T21:29:26.387Z,98925.72
2022-12-05T21:31:56.728Z,98925.95
2022-12-05T21:34:25.320Z,98927.75
2022-12-05T21:36:54.730Z,98928.86
2022-12-05T21:39:24.236Z,98922.66
2022-12-05T21:41:52.851Z,98922.69
2022-12-05T21:44:21.897Z,98923.89
2022-12-05T21:46:51.134Z,98926.00
2022-12-05T21:49:19.861Z,98923.61
2022-12-05T21:51:49.092Z,98922.52
2022-12-05T21:54:18.376Z,98921.96
2022-12-05T21:56:48.913Z,98922.20
2022-12-05T21:59:17.638Z,98917.52
2022-12-05T22:01:46.862Z,98918.77
2022-12-05T22:04:17.141Z,98916.83
2022-12-05T22:06:46.118Z,98915.74
2022-12-05T22:09:16.178Z,98913.05
2022-12-05T22:11:45.268Z,98910.61
2022-12-05T22:14:14.159Z,98907.77
2022-12-05T22:16:43.384Z,98907.98
2022-12-05T22:19:12.635Z,98907.85
2022-12-05T22:21:44.948Z,98904.72
2022-12-05T22:24:14.128Z,98907.52
2022-12-05T22:26:42.666Z,98911.50
2022-12-05T22:29:14.214Z,98915.58
2022-12-05T22:31:43.633Z,98922.09
2022-12-05T22:34:12.223Z,98922.89
2022-12-05T22:36:41.054Z,98919.48
2022-12-05T22:39:12.898Z,98912.07
2022-12-05T22:41:41.756Z,98908.50
2022-12-05T22:44:10.678Z,98903.57
2022-12-05T22:46:39.532Z,98897.94
2022-12-05T22:49:08.488Z,98891.27
2022-12-05T22:51:37.539Z,98884.50
2022-12-05T22:54:06.160Z,98884.59
2022-12-05T22:56:34.820Z,98879.93
2022-12-05T22:59:03.860Z,98876.42
2022-12-05T23:01:34.942Z,98880.09
2022-12-05T23:04:10.412Z,98878.88
2022-12-05T23:06:39.748Z,98874.34
2022-12-05T23:09:10.903Z,98873.66
2022-12-05T23:11:40.105Z,98873.60
2022-12-05T23:14:09.431Z,98870.95
2022-12-05T23:16:38.835Z,98866.74
2022-12-05T23:19:08.686Z,98857.50
2022-12-05T23:21:40.107Z,98853.43
2022-12-05T23:24:11.911Z,98844.84
2022-12-05T23:26:44.317Z,98834.74
2022-12-05T23:29:15.286Z,98830.83
2022-12-05T23:31:44.798Z,98828.04
2022-12-05T23:34:13.748Z,98827.85
2022-12-05T23:36:42.404Z,98825.66
2022-12-05T23:39:11.453Z,98817.27
2022-12-05T23:41:40.317Z,98810.69
2022-12-05T23:44:09.329Z,98808.86
2022-12-05T23:46:41.929Z,98813.58
2022-12-05T23:49:12.361Z,98812.34
2022-12-05T23:51:41.172Z,98819.69
2022-12-05T23:54:12.410Z,98823.20
2022-12-05T23:56:41.744Z,98830.31
2022-12-05T23:59:13.196Z,98830.48
